createdAt,value
2023-02-17T00:00:25.998Z,49.80
2023-02-17T00:01:26.000Z,47.71
2023-02-17T00:02:26.009Z,59.31
2023-02-17T00:03:26.064Z,58.44
2023-02-17T00:04:25.960Z,43.32
2023-02-17T00:05:25.957Z,52.99
2023-02-17T00:06:25.953Z,44.94
2023-02-17T00:07:25.944Z,47.99
2023-02-17T00:08:25.930Z,48.81
2023-02-17T00:09:25.946Z,43.35
2023-02-17T00:10:25.907Z,42.23
2023-02-17T00:11:25.906Z,48.44
2023-02-17T00:12:25.900Z,49.10
2023-02-17T00:13:25.891Z,51.77
2023-02-17T00:14:25.914Z,43.71
2023-02-17T00:15:25.874Z,55.37
2023-02-17T00:16:25.892Z,40.87
2023-02-17T00:17:25.883Z,38.37
2023-02-17T00:18:25.856Z,39.17
2023-02-17T00:19:25.982Z,48.15
2023-02-17T00:20:25.835Z,50.20
2023-02-17T00:21:25.839Z,51.71
2023-02-17T00:22:25.821Z,46.47
2023-02-17T00:23:25.811Z,55.81
2023-02-17T00:24:25.838Z,53.00
2023-02-17T00:25:25.803Z,49.23
2023-02-17T00:26:25.827Z,45.08
2023-02-17T00:27:25.783Z,52.21
2023-02-17T00:28:25.773Z,50.29
2023-02-17T00:29:25.803Z,48.40
2023-02-17T00:30:25.804Z,45.71
2023-02-17T00:31:25.793Z,51.94
2023-02-17T00:32:25.752Z,44.35
2023-02-17T00:33:25.742Z,42.76
2023-02-17T00:34:25.760Z,52.81
2023-02-17T00:35:25.730Z,52.93
2023-02-17T00:36:25.743Z,41.35
2023-02-17T00:37:25.710Z,52.65
2023-02-17T00:38:25.703Z,53.42
2023-02-17T00:39:25.722Z,46.86
2023-02-17T00:40:25.689Z,48.81
2023-02-17T00:41:25.699Z,47.63
2023-02-17T00:42:25.673Z,55.51
2023-02-17T00:43:25.669Z,42.94
2023-02-17T00:44:25.695Z,38.28
2023-02-17T00:45:25.669Z,39.94
2023-02-17T00:46:25.657Z,51.43
2023-02-17T00:47:25.644Z,41.85
2023-02-17T00:48:25.664Z,51.04
2023-02-17T00:49:25.664Z,42.57
2023-02-17T00:50:25.621Z,42.22
2023-02-17T00:51:25.615Z,42.00
2023-02-17T00:52:25.596Z,51.34
2023-02-17T00:53:25.593Z,45.17
2023-02-17T00:54:25.607Z,57.68
2023-02-17T00:55:25.578Z,44.25
2023-02-17T00:56:25.575Z,57.80
2023-02-17T00:57:25.560Z,48.80
2023-02-17T00:58:25.561Z,45.91
2023-02-17T00:59:25.582Z,53.73
2023-02-17T01:00:25.531Z,53.11
2023-02-17T01:01:25.543Z,46.64
2023-02-17T01:02:25.522Z,39.78
2023-02-17T01:03:25.539Z,48.58
2023-02-17T01:04:25.545Z,49.07
2023-02-17T01:05:25.508Z,44.44
2023-02-17T01:06:25.497Z,49.73
2023-02-17T01:07:25.494Z,41.67
2023-02-17T01:08:25.481Z,38.92
2023-02-17T01:09:25.489Z,40.88
2023-02-17T01:10:25.464Z,48.71
2023-02-17T01:11:25.460Z,50.62
2023-02-17T01:12:26.451Z,51.83
2023-02-17T01:13:25.440Z,55.35
2023-02-17T01:14:25.464Z,58.44
2023-02-17T01:15:25.421Z,43.50
2023-02-17T01:16:25.506Z,49.34
2023-02-17T01:17:25.416Z,54.38
2023-02-17T01:18:25.411Z,52.17
2023-02-17T01:19:25.413Z,44.55
2023-02-17T01:20:25.387Z,54.22
2023-02-17T01:21:25.396Z,50.96
2023-02-17T01:22:25.370Z,45.65
2023-02-17T01:23:25.357Z,40.56
2023-02-17T01:24:25.383Z,38.51
2023-02-17T01:25:25.356Z,54.80
2023-02-17T01:26:25.368Z,56.27
2023-02-17T01:27:25.339Z,42.76
2023-02-17T01:28:25.321Z,42.78
2023-02-17T01:29:25.342Z,45.11
2023-02-17T01:30:25.339Z,57.78
2023-02-17T01:31:25.362Z,50.35
2023-02-17T01:32:25.292Z,53.53
2023-02-17T01:33:25.281Z,51.30
2023-02-17T01:34:25.300Z,46.08
2023-02-17T01:35:25.266Z,46.61
2023-02-17T01:36:25.266Z,37.89
2023-02-17T01:37:25.265Z,46.48
2023-02-17T01:38:25.252Z,50.44
2023-02-17T01:39:25.269Z,55.76
2023-02-17T01:40:25.230Z,49.97
2023-02-17T01:41:25.227Z,40.05
2023-02-17T01:42:25.214Z,46.17
2023-02-17T01:43:25.210Z,51.62
2023-02-17T01:44:25.235Z,38.77
2023-02-17T01:45:25.195Z,36.76
2023-02-17T01:46:25.246Z,37.37
2023-02-17T01:47:25.179Z,47.91
2023-02-17T01:48:25.174Z,46.38
2023-02-17T01:49:25.187Z,59.36
2023-02-17T01:50:25.151Z,56.49
2023-02-17T01:51:25.162Z,58.98
2023-02-17T01:52:25.146Z,51.55
2023-02-17T01:53:25.134Z,43.72
2023-02-17T01:54:25.125Z,47.41
2023-02-17T01:55:25.138Z,58.53
2023-02-17T01:56:25.100Z,48.37
2023-02-17T01:57:25.091Z,44.87
2023-02-17T01:58:25.088Z,47.16
2023-02-17T01:59:25.078Z,48.85
2023-02-17T02:00:25.103Z,49.55
2023-02-17T02:01:25.068Z,48.95
2023-02-17T02:02:25.176Z,41.10
2023-02-17T02:03:25.053Z,54.07
2023-02-17T02:04:25.045Z,52.00
2023-02-17T02:05:25.057Z,41.85
2023-02-17T02:06:25.041Z,49.29
2023-02-17T02:07:25.026Z,47.04
2023-02-17T02:08:25.003Z,54.78
2023-02-17T02:09:25.001Z,51.86
2023-02-17T02:10:25.026Z,45.67
2023-02-17T02:11:24.989Z,49.39
2023-02-17T02:12:24.985Z,55.21
2023-02-17T02:13:24.974Z,40.12
2023-02-17T02:14:24.964Z,47.67
2023-02-17T02:15:24.983Z,41.00
2023-02-17T02:16:24.992Z,49.90
2023-02-17T02:17:24.947Z,57.70
2023-02-17T02:18:24.938Z,54.62
2023-02-17T02:19:24.923Z,48.98
2023-02-17T02:20:24.958Z,43.24
2023-02-17T02:21:24.931Z,53.36
2023-02-17T02:22:24.903Z,50.30
2023-02-17T02:23:24.898Z,52.03
2023-02-17T02:24:24.892Z,48.47
2023-02-17T02:25:24.908Z,51.27
2023-02-17T02:26:24.872Z,51.44
2023-02-17T02:27:24.871Z,53.15
2023-02-17T02:28:24.866Z,38.73
2023-02-17T02:29:24.857Z,37.94
2023-02-17T02:30:24.892Z,52.46
2023-02-17T02:31:24.888Z,59.51
2023-02-17T02:32:24.832Z,51.56
2023-02-17T02:33:24.827Z,38.88
2023-02-17T02:34:24.814Z,57.56
2023-02-17T02:35:24.811Z,48.18
2023-02-17T02:36:24.837Z,44.28
2023-02-17T02:37:24.798Z,42.05
2023-02-17T02:38:24.786Z,56.61
2023-02-17T02:39:24.788Z,55.55
2023-02-17T02:40:24.767Z,47.01
2023-02-17T02:41:24.791Z,57.14
2023-02-17T02:42:24.757Z,48.81
2023-02-17T02:43:24.757Z,48.27
2023-02-17T02:44:24.736Z,46.89
2023-02-17T02:45:24.769Z,59.18
2023-02-17T02:46:24.759Z,48.25
2023-02-17T02:47:24.722Z,52.79
2023-02-17T02:48:24.716Z,43.03
2023-02-17T02:49:24.701Z,42.24
2023-02-17T02:50:24.693Z,42.71
2023-02-17T02:51:24.710Z,55.70
2023-02-17T02:52:24.675Z,44.13
2023-02-17T02:53:24.682Z,52.82
2023-02-17T02:54:24.672Z,40.15
2023-02-17T02:55:24.656Z,44.62
2023-02-17T02:56:24.675Z,50.37
2023-02-17T02:57:24.645Z,47.95
2023-02-17T02:58:24.640Z,43.97
2023-02-17T02:59:24.628Z,48.48
2023-02-17T03:00:24.622Z,47.90
2023-02-17T03:01:24.743Z,50.00
2023-02-17T03:02:24.600Z,45.60
2023-02-17T03:03:24.588Z,46.00
2023-02-17T03:04:24.586Z,39.27
2023-02-17T03:05:24.579Z,45.70
2023-02-17T03:06:24.614Z,49.34
2023-02-17T03:07:24.559Z,38.51
2023-02-17T03:08:24.569Z,37.58
2023-02-17T03:09:24.552Z,47.46
2023-02-17T03:10:24.538Z,50.40
2023-02-17T03:11:24.555Z,47.27
2023-02-17T03:12:24.528Z,42.07
2023-02-17T03:13:24.514Z,50.34
2023-02-17T03:14:24.537Z,46.19
2023-02-17T03:15:24.508Z,39.19
2023-02-17T03:16:24.603Z,46.28
2023-02-17T03:17:24.495Z,45.05
2023-02-17T03:18:24.487Z,53.37
2023-02-17T03:19:24.483Z,52.00
2023-02-17T03:20:24.463Z,47.12
2023-02-17T03:21:24.481Z,51.79
2023-02-17T03:22:24.450Z,47.31
2023-02-17T03:23:24.439Z,47.36
2023-02-17T03:24:24.428Z,39.13
2023-02-17T03:25:24.427Z,40.44
2023-02-17T03:26:24.443Z,53.21
2023-02-17T03:27:24.404Z,45.49
2023-02-17T03:28:24.395Z,51.19
2023-02-17T03:29:24.394Z,40.30
2023-02-17T03:30:24.454Z,41.42
2023-02-17T03:31:24.492Z,46.31
2023-02-17T03:32:24.409Z,49.78
2023-02-17T03:33:24.368Z,50.67
2023-02-17T03:34:24.360Z,48.11
2023-02-17T03:35:24.347Z,50.64
2023-02-17T03:36:24.376Z,55.50
2023-02-17T03:37:24.340Z,55.97
2023-02-17T03:38:24.335Z,50.17
2023-02-17T03:39:24.331Z,55.93
2023-02-17T03:40:24.323Z,44.50
2023-02-17T03:41:24.311Z,53.93
2023-02-17T03:42:24.325Z,50.50
2023-02-17T03:43:24.291Z,53.47
2023-02-17T03:44:24.286Z,53.83
2023-02-17T03:45:24.299Z,55.68
2023-02-17T03:46:24.287Z,52.76
2023-02-17T03:47:24.283Z,58.07
2023-02-17T03:48:24.257Z,55.16
2023-02-17T03:49:24.258Z,50.58
2023-02-17T03:50:24.242Z,60.37
2023-02-17T03:51:24.229Z,56.30
2023-02-17T03:52:25.242Z,46.70
2023-02-17T03:53:24.209Z,52.23
2023-02-17T03:54:24.197Z,52.81
2023-02-17T03:55:24.201Z,53.99
2023-02-17T03:56:24.182Z,51.52
2023-02-17T03:57:24.209Z,55.88
2023-02-17T03:58:24.170Z,51.47
2023-02-17T03:59:24.157Z,56.70
2023-02-17T04:00:24.152Z,60.84
2023-02-17T04:01:24.161Z,57.22
2023-02-17T04:02:24.159Z,53.64
2023-02-17T04:03:24.128Z,50.61
2023-02-17T04:04:24.146Z,52.18
2023-02-17T04:05:24.110Z,53.63
2023-02-17T04:06:24.102Z,55.60
2023-02-17T04:07:24.116Z,53.54
2023-02-17T04:08:24.087Z,49.68
2023-02-17T04:09:24.081Z,46.58
2023-02-17T04:10:24.080Z,53.37
2023-02-17T04:11:24.058Z,55.81
2023-02-17T04:12:24.076Z,56.25
2023-02-17T04:13:24.043Z,54.64
2023-02-17T04:14:24.038Z,55.47
2023-02-17T04:15:24.046Z,61.05
2023-02-17T04:16:24.024Z,51.96
2023-02-17T04:17:24.045Z,58.42
2023-02-17T04:18:24.024Z,56.53
2023-02-17T04:19:24.013Z,54.43
2023-02-17T04:20:23.988Z,57.59
2023-02-17T04:21:23.992Z,56.06
2023-02-17T04:22:24.009Z,62.30
2023-02-17T04:23:23.968Z,58.19
2023-02-17T04:24:23.964Z,56.03
2023-02-17T04:25:23.942Z,55.98
2023-02-17T04:26:24.949Z,50.68
2023-02-17T04:27:23.938Z,56.08
2023-02-17T04:28:24.163Z,61.76
2023-02-17T04:29:23.929Z,57.81
2023-02-17T04:30:23.987Z,54.98
2023-02-17T04:31:23.931Z,50.70
2023-02-17T04:32:23.886Z,60.68
2023-02-17T04:33:25.114Z,58.18
2023-02-17T04:34:23.878Z,62.90
2023-02-17T04:35:23.871Z,61.04
2023-02-17T04:36:23.861Z,61.79
2023-02-17T04:37:23.859Z,62.33
2023-02-17T04:38:23.872Z,58.57
2023-02-17T04:39:23.848Z,58.90
2023-02-17T04:40:23.835Z,64.36
2023-02-17T04:41:23.819Z,61.34
2023-02-17T04:42:23.817Z,55.85
2023-02-17T04:43:23.833Z,59.38
2023-02-17T04:44:23.804Z,59.64
2023-02-17T04:45:23.793Z,57.86
2023-02-17T04:46:23.813Z,55.84
2023-02-17T04:47:23.777Z,59.46
2023-02-17T04:48:23.802Z,59.06
2023-02-17T04:49:23.772Z,58.83
2023-02-17T04:50:23.765Z,55.78
2023-02-17T04:51:23.747Z,53.82
2023-02-17T04:52:23.738Z,64.06
2023-02-17T04:53:23.764Z,52.57
2023-02-17T04:54:23.728Z,58.88
2023-02-17T04:55:23.734Z,57.89
2023-02-17T04:56:23.708Z,60.54
2023-02-17T04:57:23.701Z,63.68
2023-02-17T04:58:23.723Z,57.88
2023-02-17T04:59:25.538Z,57.13
2023-02-17T05:00:24.680Z,56.85
2023-02-17T05:01:23.685Z,56.10
2023-02-17T05:02:23.664Z,61.44
2023-02-17T05:03:23.695Z,59.39
2023-02-17T05:04:23.680Z,61.93
2023-02-17T05:05:23.643Z,57.57
2023-02-17T05:06:23.633Z,57.27
2023-02-17T05:07:23.614Z,54.32
2023-02-17T05:08:24.644Z,56.73
2023-02-17T05:09:23.612Z,58.39
2023-02-17T05:10:24.115Z,53.06
2023-02-17T05:11:24.598Z,63.03
2023-02-17T05:12:23.594Z,61.79
2023-02-17T05:13:23.607Z,54.91
2023-02-17T05:14:23.573Z,59.14
2023-02-17T05:15:23.567Z,63.31
2023-02-17T05:16:23.601Z,54.34
2023-02-17T05:17:23.548Z,61.85
2023-02-17T05:18:23.577Z,59.49
2023-02-17T05:19:23.535Z,61.01
2023-02-17T05:20:23.525Z,60.61
2023-02-17T05:21:23.519Z,58.37
2023-02-17T05:22:23.512Z,60.85
2023-02-17T05:23:23.527Z,58.61
2023-02-17T05:24:23.492Z,60.34
2023-02-17T05:25:23.489Z,59.51
2023-02-17T05:26:23.478Z,57.62
2023-02-17T05:27:23.470Z,60.81
2023-02-17T05:28:23.498Z,59.44
2023-02-17T05:29:23.453Z,58.94
2023-02-17T05:30:23.462Z,58.39
2023-02-17T05:31:23.533Z,59.06
2023-02-17T05:32:23.432Z,57.10
2023-02-17T05:33:23.454Z,62.35
2023-02-17T05:34:23.420Z,61.70
2023-02-17T05:35:23.429Z,60.11
2023-02-17T05:36:23.404Z,63.01
2023-02-17T05:37:23.401Z,59.20
2023-02-17T05:38:23.394Z,59.38
2023-02-17T05:39:23.417Z,59.05
2023-02-17T05:40:23.375Z,61.02
2023-02-17T05:41:23.350Z,59.26
2023-02-17T05:42:24.355Z,62.28
2023-02-17T05:43:23.360Z,61.05
2023-02-17T05:44:23.365Z,55.73
2023-02-17T05:45:23.349Z,61.96
2023-02-17T05:46:23.377Z,59.82
2023-02-17T05:47:23.320Z,60.24
2023-02-17T05:48:24.307Z,56.63
2023-02-17T05:49:23.325Z,61.26
2023-02-17T05:50:23.298Z,58.98
2023-02-17T05:51:23.290Z,57.47
2023-02-17T05:52:23.287Z,60.55
2023-02-17T05:53:23.264Z,62.31
2023-02-17T05:54:23.293Z,57.58
2023-02-17T05:55:23.248Z,57.90
2023-02-17T05:56:23.244Z,59.60
2023-02-17T05:57:23.236Z,61.90
2023-02-17T05:58:23.225Z,59.02
2023-02-17T05:59:23.249Z,58.29
2023-02-17T06:00:23.218Z,59.23
2023-02-17T06:01:23.203Z,62.09
2023-02-17T06:02:23.205Z,60.46
2023-02-17T06:03:23.195Z,60.58
2023-02-17T06:04:23.258Z,61.08
2023-02-17T06:05:23.174Z,64.42
2023-02-17T06:06:23.176Z,58.07
2023-02-17T06:07:23.164Z,58.23
2023-02-17T06:08:24.162Z,60.33
2023-02-17T06:09:23.195Z,61.09
2023-02-17T06:10:23.140Z,59.85
2023-02-17T06:11:23.136Z,58.79
2023-02-17T06:12:23.127Z,57.53
2023-02-17T06:13:23.125Z,60.78
2023-02-17T06:14:23.139Z,60.66
2023-02-17T06:15:23.112Z,59.57
2023-02-17T06:16:23.128Z,59.56
2023-02-17T06:17:23.098Z,61.55
2023-02-17T06:18:23.099Z,55.16
2023-02-17T06:19:23.099Z,61.28
2023-02-17T06:20:23.067Z,58.92
2023-02-17T06:21:23.056Z,58.48
2023-02-17T06:22:23.050Z,60.02
2023-02-17T06:23:23.047Z,61.65
2023-02-17T06:24:23.064Z,60.57
2023-02-17T06:25:23.033Z,58.79
2023-02-17T06:26:23.023Z,60.86
2023-02-17T06:27:23.016Z,62.17
2023-02-17T06:28:23.010Z,59.62
2023-02-17T06:29:23.026Z,60.57
2023-02-17T06:30:23.033Z,60.48
2023-02-17T06:31:23.116Z,60.30
2023-02-17T06:32:23.022Z,60.63
2023-02-17T06:33:22.966Z,59.31
2023-02-17T06:34:23.488Z,61.63
2023-02-17T06:35:22.949Z,63.72
2023-02-17T06:36:22.939Z,64.58
2023-02-17T06:37:22.936Z,58.32
2023-02-17T06:38:22.964Z,62.41
2023-02-17T06:39:22.948Z,63.12
2023-02-17T06:40:22.912Z,60.10
2023-02-17T06:41:22.902Z,61.02
2023-02-17T06:42:22.892Z,60.20
2023-02-17T06:43:22.913Z,62.16
2023-02-17T06:44:22.877Z,64.03
2023-02-17T06:45:22.882Z,63.40
2023-02-17T06:46:22.873Z,61.02
2023-02-17T06:47:22.860Z,64.03
2023-02-17T06:48:22.877Z,62.56
2023-02-17T06:49:22.845Z,60.89
2023-02-17T06:50:22.853Z,61.66
2023-02-17T06:51:22.834Z,59.48
2023-02-17T06:52:22.821Z,58.53
2023-02-17T06:53:22.835Z,62.10
2023-02-17T06:54:22.808Z,60.12
2023-02-17T06:55:22.792Z,59.18
2023-02-17T06:56:22.788Z,63.82
2023-02-17T06:57:22.777Z,59.84
2023-02-17T06:58:22.800Z,60.87
2023-02-17T06:59:22.763Z,62.32
2023-02-17T07:00:22.767Z,57.54
2023-02-17T07:01:22.767Z,60.05
2023-02-17T07:02:22.801Z,56.87
2023-02-17T07:03:22.760Z,57.89
2023-02-17T07:04:22.734Z,59.24
2023-02-17T07:05:22.725Z,62.94
2023-02-17T07:06:22.705Z,63.12
2023-02-17T07:07:22.712Z,62.41
2023-02-17T07:08:22.728Z,61.67
2023-02-17T07:09:22.689Z,58.88
2023-02-17T07:10:22.693Z,58.14
2023-02-17T07:11:22.695Z,61.75
2023-02-17T07:12:22.671Z,59.75
2023-02-17T07:13:22.766Z,58.62
2023-02-17T07:14:24.913Z,63.77
2023-02-17T07:15:23.646Z,58.01
2023-02-17T07:16:22.712Z,59.94
2023-02-17T07:17:22.633Z,61.18
2023-02-17T07:18:22.650Z,54.85
2023-02-17T07:19:22.611Z,60.68
2023-02-17T07:20:22.606Z,60.20
2023-02-17T07:21:22.598Z,57.41
2023-02-17T07:22:22.592Z,57.03
2023-02-17T07:23:22.606Z,53.95
2023-02-17T07:24:22.579Z,55.50
2023-02-17T07:25:22.571Z,58.52
2023-02-17T07:26:22.590Z,62.55
2023-02-17T07:27:22.554Z,60.36
2023-02-17T07:28:22.569Z,55.73
2023-02-17T07:29:22.534Z,51.51
2023-02-17T07:30:22.629Z,60.90
2023-02-17T07:31:22.714Z,59.04
2023-02-17T07:32:22.513Z,57.81
2023-02-17T07:33:22.531Z,60.39
2023-02-17T07:34:22.500Z,59.95
2023-02-17T07:35:22.496Z,57.88
2023-02-17T07:36:22.483Z,59.18
2023-02-17T07:37:22.473Z,58.45
2023-02-17T07:38:22.485Z,57.41
2023-02-17T07:39:22.460Z,61.40
2023-02-17T07:40:22.446Z,57.05
2023-02-17T07:41:22.431Z,60.20
2023-02-17T07:42:22.429Z,58.68
2023-02-17T07:43:22.433Z,59.19
2023-02-17T07:44:23.410Z,58.22
2023-02-17T07:45:22.394Z,59.18
2023-02-17T07:46:23.412Z,61.43
2023-02-17T07:47:22.392Z,58.82
2023-02-17T07:48:22.424Z,56.73
2023-02-17T07:49:22.373Z,57.08
2023-02-17T07:50:22.366Z,59.36
2023-02-17T07:51:22.355Z,62.78
2023-02-17T07:52:22.350Z,61.12
2023-02-17T07:53:22.365Z,60.36
2023-02-17T07:54:22.342Z,58.51
2023-02-17T07:55:22.328Z,55.10
2023-02-17T07:56:22.326Z,59.60
2023-02-17T07:57:22.319Z,63.10
2023-02-17T07:58:22.332Z,58.88
2023-02-17T07:59:23.305Z,57.84
2023-02-17T08:00:22.296Z,60.34
2023-02-17T08:01:22.305Z,59.78
2023-02-17T08:02:22.337Z,59.91
2023-02-17T08:03:22.308Z,57.83
2023-02-17T08:04:22.341Z,58.32
2023-02-17T08:05:23.117Z,57.37
2023-02-17T08:06:22.245Z,59.26
2023-02-17T08:07:23.239Z,57.57
2023-02-17T08:08:22.264Z,53.69
2023-02-17T08:09:22.224Z,56.41
2023-02-17T08:10:22.214Z,55.68
2023-02-17T08:11:22.204Z,59.61
2023-02-17T08:12:22.202Z,60.71
2023-02-17T08:13:22.232Z,56.92
2023-02-17T08:14:22.195Z,58.28
2023-02-17T08:15:22.182Z,59.92
2023-02-17T08:16:22.201Z,57.83
2023-02-17T08:17:22.161Z,57.84
2023-02-17T08:18:22.162Z,55.48
2023-02-17T08:19:22.168Z,54.58
2023-02-17T08:20:22.140Z,59.89
2023-02-17T08:21:22.126Z,56.92
2023-02-17T08:22:22.134Z,56.28
2023-02-17T08:23:22.118Z,56.21
2023-02-17T08:24:22.157Z,58.89
2023-02-17T08:25:22.104Z,59.77
2023-02-17T08:26:22.106Z,55.73
2023-02-17T08:27:22.085Z,57.71
2023-02-17T08:28:22.085Z,56.69
2023-02-17T08:29:22.111Z,55.88
2023-02-17T08:30:22.081Z,56.34
2023-02-17T08:31:22.139Z,58.18
2023-02-17T08:32:22.055Z,56.74
2023-02-17T08:33:22.036Z,57.54
2023-02-17T08:34:22.097Z,58.10
2023-02-17T08:35:22.026Z,56.86
2023-02-17T08:36:22.018Z,57.18
2023-02-17T08:37:22.006Z,58.36
2023-02-17T08:38:22.000Z,58.42
2023-02-17T08:39:22.024Z,55.95
2023-02-17T08:40:21.992Z,60.94
2023-02-17T08:41:21.973Z,56.13
2023-02-17T08:42:22.012Z,53.90
2023-02-17T08:43:21.964Z,55.54
2023-02-17T08:44:21.976Z,58.16
2023-02-17T08:45:21.957Z,57.19
2023-02-17T08:46:22.043Z,56.96
2023-02-17T08:47:21.962Z,57.76
2023-02-17T08:48:21.926Z,56.68
2023-02-17T08:49:21.992Z,60.77
2023-02-17T08:50:22.910Z,58.61
2023-02-17T08:51:21.907Z,57.74
2023-02-17T08:52:21.913Z,57.42
2023-02-17T08:53:21.928Z,57.25
2023-02-17T08:54:21.906Z,58.86
2023-02-17T08:55:21.866Z,57.80
2023-02-17T08:56:21.917Z,56.92
2023-02-17T08:57:21.869Z,58.05
2023-02-17T08:58:21.890Z,56.57
2023-02-17T08:59:21.909Z,58.69
2023-02-17T09:00:21.831Z,58.42
2023-02-17T09:01:21.858Z,57.19
2023-02-17T09:02:21.820Z,58.69
2023-02-17T09:03:21.835Z,59.42
2023-02-17T09:04:21.906Z,58.82
2023-02-17T09:05:21.802Z,56.65
2023-02-17T09:06:21.782Z,56.56
2023-02-17T09:07:21.776Z,57.77
2023-02-17T09:08:21.777Z,60.65
2023-02-17T09:09:21.821Z,57.40
2023-02-17T09:10:21.768Z,58.24
2023-02-17T09:11:21.792Z,54.87
2023-02-17T09:12:21.782Z,56.56
2023-02-17T09:13:21.734Z,58.09
2023-02-17T09:14:21.751Z,56.35
2023-02-17T09:15:21.715Z,57.82
2023-02-17T09:16:21.776Z,55.90
2023-02-17T09:17:21.697Z,54.12
2023-02-17T09:18:21.699Z,58.48
2023-02-17T09:19:21.730Z,57.33
2023-02-17T09:20:25.201Z,58.27
2023-02-17T09:21:22.680Z,58.68
2023-02-17T09:22:31.708Z,59.53
2023-02-17T09:23:23.688Z,57.68
2023-02-17T09:24:21.671Z,60.61
2023-02-17T09:25:22.755Z,57.31
2023-02-17T09:26:21.703Z,56.81
2023-02-17T09:27:21.641Z,55.74
2023-02-17T09:28:21.623Z,59.69
2023-02-17T09:29:21.658Z,54.45
2023-02-17T09:30:21.662Z,56.66
2023-02-17T09:31:21.736Z,56.16
2023-02-17T09:32:21.676Z,58.72
2023-02-17T09:33:21.621Z,55.65
2023-02-17T09:34:21.602Z,56.56
2023-02-17T09:35:21.570Z,57.49
2023-02-17T09:36:21.600Z,58.55
2023-02-17T09:37:21.554Z,58.33
2023-02-17T09:38:21.542Z,60.30
2023-02-17T09:39:21.560Z,56.27
2023-02-17T09:40:21.598Z,56.70
2023-02-17T09:41:21.565Z,58.70
2023-02-17T09:42:21.602Z,54.19
2023-02-17T09:43:21.556Z,56.47
2023-02-17T09:44:21.518Z,59.58
2023-02-17T09:45:21.488Z,56.16
2023-02-17T09:46:21.524Z,55.91
2023-02-17T09:47:21.572Z,58.98
2023-02-17T09:48:21.467Z,55.76
2023-02-17T09:49:21.525Z,56.24
2023-02-17T09:50:21.458Z,58.75
2023-02-17T09:51:21.442Z,56.38
2023-02-17T09:52:21.442Z,56.90
2023-02-17T09:53:21.417Z,55.24
2023-02-17T09:54:21.460Z,57.36
2023-02-17T09:55:21.466Z,56.33
2023-02-17T09:56:21.413Z,59.49
2023-02-17T09:57:21.389Z,58.93
2023-02-17T09:58:21.426Z,55.65
2023-02-17T09:59:21.401Z,57.67
2023-02-17T10:00:21.372Z,58.01
2023-02-17T10:01:21.385Z,56.29
2023-02-17T10:02:21.349Z,56.40
2023-02-17T10:03:21.394Z,57.12
2023-02-17T10:04:21.428Z,56.01
2023-02-17T10:05:22.067Z,56.55
2023-02-17T10:06:21.319Z,56.28
2023-02-17T10:07:21.340Z,56.85
2023-02-17T10:08:21.374Z,56.19
2023-02-17T10:09:21.303Z,59.09
2023-02-17T10:10:21.456Z,58.48
2023-02-17T10:11:21.288Z,56.88
2023-02-17T10:12:21.273Z,57.50
2023-02-17T10:13:21.321Z,57.43
2023-02-17T10:14:21.303Z,57.34
2023-02-17T10:15:21.273Z,57.83
2023-02-17T10:16:21.297Z,55.46
2023-02-17T10:17:21.317Z,57.95
2023-02-17T10:18:21.223Z,56.24
2023-02-17T10:19:21.290Z,56.21
2023-02-17T10:20:21.321Z,56.40
2023-02-17T10:21:21.259Z,59.22
2023-02-17T10:22:21.223Z,57.55
2023-02-17T10:23:21.184Z,58.06
2023-02-17T10:24:21.247Z,56.51
2023-02-17T10:25:21.202Z,57.53
2023-02-17T10:26:21.209Z,53.82
2023-02-17T10:27:21.186Z,57.99
2023-02-17T10:28:21.242Z,57.65
2023-02-17T10:29:21.177Z,58.93
2023-02-17T10:30:21.188Z,58.48
2023-02-17T10:31:21.218Z,60.56
2023-02-17T10:32:21.194Z,57.13
2023-02-17T10:33:21.105Z,58.90
2023-02-17T10:34:21.153Z,58.63
2023-02-17T10:35:21.127Z,57.94
2023-02-17T10:36:21.077Z,57.72
2023-02-17T10:37:21.073Z,57.07
2023-02-17T10:38:21.064Z,57.68
2023-02-17T10:39:21.057Z,58.65
2023-02-17T10:40:21.125Z,58.66
2023-02-17T10:41:21.044Z,59.40
2023-02-17T10:42:21.048Z,57.34
2023-02-17T10:43:21.027Z,58.17
2023-02-17T10:44:21.021Z,60.87
2023-02-17T10:45:21.050Z,59.51
2023-02-17T10:46:21.024Z,60.99
2023-02-17T10:47:21.004Z,60.86
2023-02-17T10:48:20.995Z,57.36
2023-02-17T10:49:20.977Z,57.94
2023-02-17T10:50:21.065Z,62.35
2023-02-17T10:51:20.962Z,62.28
2023-02-17T10:52:20.955Z,59.51
2023-02-17T10:53:20.947Z,59.28
2023-02-17T10:54:20.944Z,58.80
2023-02-17T10:55:23.295Z,60.04
2023-02-17T10:56:21.927Z,60.13
2023-02-17T10:57:20.922Z,59.75
2023-02-17T10:58:20.907Z,56.62
2023-02-17T10:59:20.915Z,56.54
2023-02-17T11:00:20.952Z,58.28
2023-02-17T11:01:20.922Z,58.04
2023-02-17T11:02:20.877Z,57.49
2023-02-17T11:03:20.877Z,59.22
2023-02-17T11:04:20.861Z,61.11
2023-02-17T11:05:20.921Z,59.41
2023-02-17T11:06:20.867Z,58.02
2023-02-17T11:07:20.840Z,57.16
2023-02-17T11:08:20.835Z,57.30
2023-02-17T11:09:20.822Z,58.54
2023-02-17T11:10:20.829Z,57.91
2023-02-17T11:11:20.844Z,61.59
2023-02-17T11:12:20.797Z,56.38
2023-02-17T11:13:20.789Z,59.86
2023-02-17T11:14:20.803Z,58.83
2023-02-17T11:15:20.785Z,59.03
2023-02-17T11:16:20.827Z,56.51
2023-02-17T11:17:20.786Z,56.53
2023-02-17T11:18:20.755Z,58.75
2023-02-17T11:19:20.757Z,58.62
2023-02-17T11:20:20.741Z,59.15
2023-02-17T11:21:20.754Z,58.14
2023-02-17T11:22:20.721Z,58.93
2023-02-17T11:23:20.715Z,56.34
2023-02-17T11:24:20.705Z,59.69
2023-02-17T11:25:20.710Z,56.82
2023-02-17T11:26:20.717Z,58.63
2023-02-17T11:27:20.679Z,61.45
2023-02-17T11:28:22.930Z,60.56
2023-02-17T11:29:20.669Z,58.53
2023-02-17T11:30:20.698Z,58.79
2023-02-17T11:31:20.713Z,56.66
2023-02-17T11:32:20.753Z,57.57
2023-02-17T11:33:20.637Z,59.18
2023-02-17T11:34:20.625Z,58.19
2023-02-17T11:35:20.626Z,59.07
2023-02-17T11:36:20.753Z,58.06
2023-02-17T11:37:20.616Z,57.20
2023-02-17T11:38:20.600Z,57.80
2023-02-17T11:39:20.591Z,56.73
2023-02-17T11:40:22.321Z,59.00
2023-02-17T11:41:21.600Z,60.90
2023-02-17T11:42:20.600Z,59.30
2023-02-17T11:43:20.585Z,56.13
2023-02-17T11:44:20.550Z,59.80
2023-02-17T11:45:20.595Z,61.47
2023-02-17T11:46:20.588Z,55.47
2023-02-17T11:47:20.533Z,59.43
2023-02-17T11:48:20.548Z,58.84
2023-02-17T11:49:20.542Z,57.86
2023-02-17T11:50:28.840Z,57.71
2023-02-17T11:51:22.522Z,59.24
2023-02-17T11:52:22.469Z,59.75
2023-02-17T11:53:20.484Z,59.97
2023-02-17T11:54:20.477Z,58.05
2023-02-17T11:55:20.473Z,56.84
2023-02-17T11:56:20.494Z,60.28
2023-02-17T11:57:20.448Z,57.79
2023-02-17T11:58:20.447Z,56.46
2023-02-17T11:59:20.424Z,60.29
2023-02-17T12:00:21.424Z,59.93
2023-02-17T12:01:20.440Z,57.73
2023-02-17T12:02:20.409Z,59.74
2023-02-17T12:03:20.443Z,59.43
2023-02-17T12:04:20.393Z,56.50
2023-02-17T12:05:20.432Z,57.12
2023-02-17T12:06:20.371Z,58.64
2023-02-17T12:07:21.408Z,57.72
2023-02-17T12:08:20.366Z,57.36
2023-02-17T12:09:20.358Z,57.96
2023-02-17T12:10:20.344Z,56.08
2023-02-17T12:11:20.342Z,59.46
2023-02-17T12:12:20.358Z,57.11
2023-02-17T12:13:20.324Z,57.28
2023-02-17T12:14:20.318Z,57.51
2023-02-17T12:15:20.308Z,57.74
2023-02-17T12:16:20.333Z,57.60
2023-02-17T12:17:20.323Z,56.15
2023-02-17T12:18:20.291Z,57.06
2023-02-17T12:19:20.276Z,58.68
2023-02-17T12:20:20.291Z,56.92
2023-02-17T12:21:20.283Z,57.81
2023-02-17T12:22:20.304Z,60.51
2023-02-17T12:23:20.253Z,59.25
2023-02-17T12:24:20.244Z,56.97
2023-02-17T12:25:20.239Z,57.20
2023-02-17T12:26:20.225Z,59.10
2023-02-17T12:27:20.246Z,57.50
2023-02-17T12:28:20.211Z,56.68
2023-02-17T12:29:20.196Z,56.90
2023-02-17T12:30:20.276Z,55.39
2023-02-17T12:31:20.276Z,57.80
2023-02-17T12:32:20.291Z,58.24
2023-02-17T12:33:20.168Z,60.40
2023-02-17T12:34:20.158Z,57.16
2023-02-17T12:35:20.162Z,57.90
2023-02-17T12:36:20.151Z,58.87
2023-02-17T12:37:20.163Z,58.80
2023-02-17T12:38:20.127Z,57.59
2023-02-17T12:39:20.132Z,56.80
2023-02-17T12:40:20.124Z,56.65
2023-02-17T12:41:20.110Z,54.85
2023-02-17T12:42:21.121Z,57.65
2023-02-17T12:43:20.095Z,59.03
2023-02-17T12:44:20.086Z,58.59
2023-02-17T12:45:20.077Z,57.26
2023-02-17T12:46:20.138Z,57.13
2023-02-17T12:47:20.103Z,57.88
2023-02-17T12:48:20.061Z,57.19
2023-02-17T12:49:20.046Z,57.24
2023-02-17T12:50:20.044Z,56.64
2023-02-17T12:51:20.025Z,56.99
2023-02-17T12:52:20.058Z,59.81